Decoded Metar for CYTL (BIG TROUT LAKE in ON, CANADA) (IATA:YTL) | Meteo·Mobile Aviation Weather
aviador You're here:

CYTL Decoded Metar

BIG TROUT LAKE in ON, CANADA
Report Time2019-04-23 15:00:00
UTC Time2019-04-23 16:11:50
Flight Rules Old
Wind160° at 10 kt
W.Decomp.*RWY 14: 9.1 kt HW 4.2 kt RCW
Visibility9999 m
Phenomena:N/A
Clouds:N/A
Expected CloudBase > 4,800 ft AGL from Temp-Dew spread
CeilingNone
Temp07°C (ISA -7)
Dew Point-5°C (42% RH)
AAT0.8°C
QNH1019 hPa
Density Alt-190 ft
Elevation735 ft
Report Wrong Elevation
Raw Report
CYTL 231500Z AUTO 16010KT 9SM CLR 07/M05 A3010 RMK SLP206=

Extra information for CYTL:More info

Metar Taf Metar & Taf Last 4 Metars F.Rules Stats Wind Profile Meteogram Temp Stats Airport Information Weather charts Add Link Nearby VenuesMetar ALERT Operation Metar Decoded Social comments